Time;durP1;ratioP1;P1;durP2;ratioP2;P2;SDS_P1;SDS_P2;PMS_P1;PMS_P2;Temp;Humidity;BMP_temperature;BMP_pressure;BME280_temperature;BME280_humidity;BME280_pressure;Samples;Min_cycle;Max_cycle;Signal;HPM_P1;HPM_P2
2022/01/18 00:01:13;;;;;;;11.05;4.45;;;21.10;44.50;;;;;;5046879;28;43558;-64
2022/01/18 00:03:41;;;;;;;7.25;3.50;;;21.10;44.60;;;;;;5046298;28;44032;-64
2022/01/18 00:06:09;;;;;;;7.10;3.88;;;21.10;44.50;;;;;;5048701;28;43699;-65
2022/01/18 00:08:37;;;;;;;8.48;3.70;;;21.10;44.50;;;;;;5049319;28;43431;-63
2022/01/18 00:11:06;;;;;;;8.02;3.47;;;21.10;44.50;;;;;;5049582;28;43535;-64
2022/01/18 00:13:55;;;;;;;7.05;3.40;;;21.10;44.60;;;;;;5048704;28;43773;-64
2022/01/18 00:16:40;;;;;;;7.80;3.63;;;21.00;44.50;;;;;;5081509;27;43675;-64
2022/01/18 00:19:11;;;;;;;7.35;3.47;;;21.00;44.50;;;;;;5049464;28;43857;-65
2022/01/18 00:22:03;;;;;;;7.75;3.58;;;21.00;44.50;;;;;;5050106;28;43721;-64
2022/01/18 00:24:26;;;;;;;7.85;3.65;;;21.00;44.60;;;;;;5051523;28;44344;-64
2022/01/18 00:26:53;;;;;;;7.43;3.13;;;21.00;44.60;;;;;;5049558;28;43750;-64
2022/01/18 00:29:23;;;;;;;7.25;3.58;;;21.00;44.60;;;;;;5050706;28;43485;-65
2022/01/18 00:39:14;;;;;;;7.15;3.50;;;21.00;44.60;;;;;;5065818;28;43438;-64
2022/01/18 00:41:42;;;;;;;6.32;3.38;;;20.90;44.60;;;;;;5052772;28;43510;-64
2022/01/18 00:44:10;;;;;;;6.78;3.20;;;20.90;44.50;;;;;;5083610;27;44952;-64
2022/01/18 00:46:39;;;;;;;6.30;3.42;;;20.90;44.60;;;;;;5043772;28;43622;-64
2022/01/18 00:49:07;;;;;;;7.32;3.60;;;20.90;44.60;;;;;;5052162;28;43483;-65
2022/01/18 00:51:38;;;;;;;7.38;3.38;;;20.90;44.60;;;;;;5056405;28;43536;-64
2022/01/18 00:54:09;;;;;;;;;;;20.90;44.60;;;;;;5083238;27;43544;-64
2022/01/18 00:56:40;;;;;;;;;;;20.90;44.60;;;;;;5061702;28;43548;-64
2022/01/18 00:59:08;;;;;;;;;;;20.90;44.70;;;;;;5051703;28;43567;-64
2022/01/18 01:01:36;;;;;;;6.85;3.03;;;20.80;44.70;;;;;;5052067;28;43547;-64
2022/01/18 01:04:06;;;;;;;7.65;3.30;;;20.80;44.70;;;;;;5046688;28;43585;-64
2022/01/18 01:06:34;;;;;;;7.28;3.28;;;20.80;44.70;;;;;;5045569;28;43605;-64
2022/01/18 01:09:04;;;;;;;6.35;2.65;;;20.80;44.70;;;;;;5078240;27;43538;-64
2022/01/18 01:11:36;;;;;;;5.32;3.00;;;20.80;44.70;;;;;;5041972;28;43642;-65
2022/01/18 01:14:05;;;;;;;7.13;3.10;;;20.80;44.70;;;;;;5047468;28;44407;-64
2022/01/18 01:16:49;;;;;;;7.00;3.40;;;20.80;44.70;;;;;;5039895;28;43426;-63
2022/01/18 01:19:41;;;;;;;6.93;3.33;;;20.80;44.70;;;;;;5045306;28;44140;-64
2022/01/18 01:44:25;;;;;;;6.72;3.00;;;20.60;44.80;;;;;;5048269;28;43669;-65
2022/01/18 01:46:53;;;;;;;6.50;2.80;;;20.60;44.80;;;;;;5042047;28;43923;-64
2022/01/18 01:49:23;;;;;;;5.07;2.97;;;20.60;44.80;;;;;;5044995;28;43743;-64
2022/01/18 01:51:51;;;;;;;6.72;3.10;;;20.60;44.90;;;;;;5046955;28;43521;-64
2022/01/18 01:54:18;;;;;;;6.70;2.80;;;20.60;44.90;;;;;;5049528;28;43518;-64
2022/01/18 01:56:46;;;;;;;7.70;3.10;;;20.60;44.90;;;;;;5048690;28;44682;-65
2022/01/18 01:59:14;;;;;;;8.05;2.83;;;20.60;44.80;;;;;;5046233;28;43543;-64
2022/01/18 02:01:47;;;;;;;7.15;2.90;;;20.60;44.80;;;;;;5048082;28;43457;-64
2022/01/18 02:04:16;;;;;;;7.13;3.22;;;20.50;44.90;;;;;;5047788;28;43601;-64
2022/01/18 02:06:44;;;;;;;7.82;3.15;;;20.50;44.90;;;;;;5046340;28;44939;-64
2022/01/18 02:09:11;;;;;;;5.25;2.80;;;20.50;44.80;;;;;;5053639;28;43455;-63
2022/01/18 02:11:39;;;;;;;6.93;3.03;;;20.50;44.90;;;;;;5046664;28;43580;-64
2022/01/18 02:14:12;;;;;;;5.70;2.78;;;20.50;44.90;;;;;;5051813;28;43510;-63
2022/01/18 02:22:15;;;;;;;5.85;2.75;;;20.50;45.00;;;;;;5047824;28;43442;-64
2022/01/18 02:24:43;;;;;;;5.50;3.05;;;20.50;44.90;;;;;;5050761;28;43624;-64
2022/01/18 02:27:11;;;;;;;6.18;2.80;;;20.50;45.00;;;;;;5047680;28;45856;-64
2022/01/18 02:29:38;;;;;;;5.78;2.83;;;20.50;45.00;;;;;;5050168;28;43501;-64
2022/01/18 02:32:06;;;;;;;5.72;2.60;;;20.50;44.90;;;;;;5052262;28;43545;-64
2022/01/18 02:34:34;;;;;;;6.65;2.80;;;20.50;45.00;;;;;;5049173;28;43494;-65
2022/01/18 02:37:04;;;;;;;5.72;2.65;;;20.50;45.00;;;;;;5054405;28;44737;-64
2022/01/18 02:39:31;;;;;;;4.95;2.60;;;20.40;44.90;;;;;;5051855;28;43694;-64
2022/01/18 02:42:07;;;;;;;6.93;3.08;;;20.50;44.90;;;;;;5053130;28;43446;-64
2022/01/18 02:44:36;;;;;;;3.63;2.10;;;20.40;44.90;;;;;;5050861;28;44047;-63
2022/01/18 02:47:05;;;;;;;5.43;2.47;;;20.50;44.90;;;;;;5050743;28;44130;-63
2022/01/18 02:49:33;;;;;;;5.30;2.50;;;20.40;44.90;;;;;;5044394;28;43555;-64
2022/01/18 02:52:02;;;;;;;4.93;2.80;;;20.40;44.90;;;;;;5048337;28;43558;-64
2022/01/18 02:54:29;;;;;;;7.20;3.00;;;20.40;44.90;;;;;;5042361;28;43485;-64
2022/01/18 02:57:01;;;;;;;3.58;2.10;;;20.40;45.00;;;;;;5042046;28;44711;-65
2022/01/18 02:59:45;;;;;;;5.82;2.45;;;20.40;45.00;;;;;;5057922;28;43551;-63
2022/01/18 03:05:26;;;;;;;5.80;2.33;;;20.40;45.00;;;;;;5042911;28;43527;-64
2022/01/18 03:07:53;;;;;;;4.32;2.20;;;20.40;45.00;;;;;;5043440;28;44998;-64
2022/01/18 03:10:21;;;;;;;4.80;2.50;;;20.30;45.00;;;;;;5044121;28;43444;-64
2022/01/18 03:12:48;;;;;;;4.88;2.38;;;20.30;45.00;;;;;;5042415;28;43416;-64
2022/01/18 03:15:16;;;;;;;5.10;2.65;;;20.30;45.00;;;;;;5043768;28;43567;-64
2022/01/18 03:17:45;;;;;;;5.10;2.28;;;20.30;45.10;;;;;;5043446;28;43990;-64
2022/01/18 03:20:15;;;;;;;4.05;2.40;;;20.30;45.10;;;;;;5044544;28;43507;-64
2022/01/18 03:22:45;;;;;;;4.65;2.40;;;20.30;45.10;;;;;;5045034;28;43531;-64
2022/01/18 03:28:04;;;;;;;4.65;2.30;;;20.30;45.10;;;;;;5041848;28;44179;-64
2022/01/18 03:30:42;;;;;;;4.88;2.45;;;20.30;45.10;;;;;;5041309;28;43487;-64
2022/01/18 03:33:20;;;;;;;4.22;2.63;;;20.30;45.10;;;;;;5046538;28;43539;-64
2022/01/18 03:35:48;;;;;;;4.78;2.22;;;20.30;45.10;;;;;;5046684;28;43554;-64
2022/01/18 03:38:21;;;;;;;4.38;2.10;;;20.30;45.10;;;;;;5045227;28;43573;-64
2022/01/18 03:40:48;;;;;;;3.38;2.00;;;20.20;45.10;;;;;;5054285;28;43676;-64
2022/01/18 03:43:16;;;;;;;4.18;2.22;;;20.20;45.10;;;;;;5052880;28;43463;-64
2022/01/18 03:45:46;;;;;;;3.80;1.90;;;20.20;45.10;;;;;;5054532;28;43489;-65
2022/01/18 03:48:25;;;;;;;3.15;1.95;;;20.20;45.10;;;;;;5048651;28;43863;-64
2022/01/18 03:50:53;;;;;;;3.70;1.92;;;20.20;45.10;;;;;;5048304;28;43705;-64
2022/01/18 03:53:21;;;;;;;3.50;1.77;;;20.20;45.20;;;;;;5055078;28;43874;-64
2022/01/18 03:55:49;;;;;;;4.78;1.98;;;20.20;45.20;;;;;;5048860;28;43559;-65
2022/01/18 03:58:17;;;;;;;4.40;2.13;;;20.20;45.20;;;;;;5049643;28;44654;-64
2022/01/18 04:00:45;;;;;;;3.13;1.83;;;20.20;45.20;;;;;;5053842;28;43981;-64
2022/01/18 04:03:13;;;;;;;3.45;1.80;;;20.20;45.20;;;;;;5054391;28;44174;-63
2022/01/18 04:05:41;;;;;;;3.15;2.03;;;20.20;45.20;;;;;;5055501;28;43499;-64
2022/01/18 04:08:08;;;;;;;3.40;2.10;;;20.20;45.20;;;;;;5057906;28;43798;-64
2022/01/18 04:10:36;;;;;;;2.95;1.85;;;20.10;45.20;;;;;;5059819;28;43766;-63
2022/01/18 04:13:03;;;;;;;3.28;1.70;;;20.10;45.30;;;;;;5055227;28;43615;-63
2022/01/18 04:15:34;;;;;;;3.63;1.60;;;20.10;45.20;;;;;;5054898;28;43558;-64
2022/01/18 04:18:15;;;;;;;4.90;1.83;;;20.10;45.20;;;;;;5054552;28;43788;-64
2022/01/18 04:28:58;;;;;;;2.63;1.77;;;20.10;45.30;;;;;;5054723;28;45276;-64
2022/01/18 04:31:27;;;;;;;2.72;1.52;;;20.10;45.20;;;;;;5055840;28;43510;-63
2022/01/18 04:33:56;;;;;;;2.83;1.63;;;20.10;45.30;;;;;;5057529;28;43491;-64
2022/01/18 04:36:26;;;;;;;4.35;1.70;;;20.10;45.30;;;;;;5059151;28;43613;-64
2022/01/18 04:38:55;;;;;;;3.03;1.58;;;20.00;45.20;;;;;;5059346;28;44103;-63
2022/01/18 04:41:30;;;;;;;2.78;1.60;;;20.00;45.30;;;;;;5048470;28;43447;-63
2022/01/18 04:49:15;;;;;;;2.60;1.30;;;20.00;45.30;;;;;;5045147;28;44697;-63
2022/01/18 04:51:44;;;;;;;2.60;1.60;;;20.00;45.30;;;;;;5039047;28;44445;-64
2022/01/18 04:54:12;;;;;;;2.75;1.63;;;20.00;45.30;;;;;;5060000;28;43541;-63
2022/01/18 04:59:09;;;;;;;2.15;1.40;;;20.00;45.30;;;;;;5045152;28;43685;-63
2022/01/18 05:01:40;;;;;;;2.05;1.35;;;20.00;45.30;;;;;;5045947;28;43724;-63
2022/01/18 05:04:08;;;;;;;3.78;1.70;;;20.00;45.40;;;;;;5046966;28;43468;-63
2022/01/18 05:06:37;;;;;;;1.55;1.27;;;20.00;45.30;;;;;;5044180;28;43582;-63
2022/01/18 05:09:08;;;;;;;2.42;1.30;;;20.00;45.30;;;;;;5046074;28;43951;-64
2022/01/18 05:11:44;;;;;;;2.60;1.45;;;20.00;45.30;;;;;;5046803;28;43502;-63
2022/01/18 05:19:44;;;;;;;2.33;1.40;;;19.90;45.40;;;;;;5030903;28;44029;-63
2022/01/18 05:24:57;;;;;;;1.40;1.27;;;19.90;45.40;;;;;;5048174;28;43542;-63
2022/01/18 05:27:25;;;;;;;1.20;1.00;;;19.90;45.40;;;;;;5045736;28;43460;-63
2022/01/18 05:29:53;;;;;;;1.48;1.10;;;19.90;45.40;;;;;;5047206;28;44029;-65
2022/01/18 05:32:20;;;;;;;1.80;1.17;;;19.90;45.40;;;;;;5050100;28;43707;-63
2022/01/18 05:34:48;;;;;;;2.22;1.30;;;19.90;45.40;;;;;;5050634;28;43477;-63
2022/01/18 05:37:16;;;;;;;1.95;1.30;;;19.90;45.40;;;;;;5084789;27;43535;-63
2022/01/18 05:39:44;;;;;;;2.00;1.13;;;19.90;45.40;;;;;;5045418;28;43857;-63
2022/01/18 05:42:11;;;;;;;1.88;1.10;;;19.90;45.40;;;;;;5049052;28;43717;-63
2022/01/18 05:44:39;;;;;;;1.42;1.25;;;19.90;45.50;;;;;;5051544;28;43562;-63
2022/01/18 05:47:06;;;;;;;2.33;1.10;;;19.80;45.40;;;;;;5049312;28;43582;-63
2022/01/18 05:49:34;;;;;;;1.75;0.90;;;19.90;45.50;;;;;;5049953;28;44095;-63
2022/01/18 05:52:01;;;;;;;1.70;1.17;;;19.80;45.40;;;;;;5044496;28;43482;-63
2022/01/18 05:54:29;;;;;;;1.40;0.90;;;19.90;45.50;;;;;;5050404;28;43420;-63
2022/01/18 05:56:56;;;;;;;1.20;1.00;;;19.90;45.50;;;;;;5047309;28;43520;-63
2022/01/18 05:59:33;;;;;;;1.58;1.10;;;19.90;45.50;;;;;;5050406;28;44203;-62
2022/01/18 06:02:13;;;;;;;1.33;0.90;;;19.90;45.60;;;;;;5051962;28;43640;-63
2022/01/18 06:07:29;;;;;;;1.75;1.00;;;19.80;45.60;;;;;;5050513;28;43503;-63
2022/01/18 06:09:56;;;;;;;1.58;0.98;;;19.80;45.50;;;;;;5052498;28;43897;-63
2022/01/18 06:12:26;;;;;;;1.27;0.90;;;19.80;45.50;;;;;;5033295;28;43508;-63
2022/01/18 06:14:53;;;;;;;1.48;1.00;;;19.80;45.50;;;;;;5029888;28;44180;-63
2022/01/18 06:17:21;;;;;;;1.25;0.88;;;19.80;45.50;;;;;;5029996;28;43559;-63
2022/01/18 06:19:50;;;;;;;2.28;1.20;;;19.80;45.50;;;;;;5028932;28;43707;-63
2022/01/18 06:22:17;;;;;;;1.65;1.20;;;19.80;45.50;;;;;;5029103;28;43595;-62
2022/01/18 06:24:45;;;;;;;1.35;0.90;;;19.80;45.50;;;;;;5030470;28;43479;-63
2022/01/18 06:27:14;;;;;;;1.15;0.75;;;19.80;45.40;;;;;;5023798;28;43472;-63
2022/01/18 06:29:41;;;;;;;1.20;0.98;;;19.80;45.40;;;;;;5037020;28;43659;-63
2022/01/18 06:32:09;;;;;;;1.15;1.00;;;19.80;45.40;;;;;;5031980;28;43531;-64
2022/01/18 06:34:36;;;;;;;1.38;0.80;;;19.80;45.40;;;;;;5022349;28;43555;-63
2022/01/18 06:37:04;;;;;;;1.92;0.80;;;19.80;45.40;;;;;;5021628;28;43562;-65
2022/01/18 06:39:31;;;;;;;1.55;1.00;;;19.80;45.40;;;;;;5025036;28;44057;-64
2022/01/18 06:41:59;;;;;;;1.75;0.80;;;19.80;45.40;;;;;;5022413;28;43954;-62
2022/01/18 06:44:27;;;;;;;1.42;0.80;;;19.90;45.40;;;;;;5022160;28;43505;-63
2022/01/18 06:46:55;;;;;;;1.02;0.90;;;19.90;45.40;;;;;;5021673;28;43558;-63
2022/01/18 06:49:23;;;;;;;1.48;0.75;;;19.90;45.30;;;;;;5024325;28;43629;-64
2022/01/18 06:51:50;;;;;;;1.05;0.77;;;19.90;45.30;;;;;;5017018;28;43459;-63
2022/01/18 06:54:18;;;;;;;1.40;0.90;;;19.90;45.30;;;;;;5019589;28;43516;-64
2022/01/18 06:56:49;;;;;;;1.42;0.90;;;19.90;45.30;;;;;;5019839;28;43521;-63
2022/01/18 06:59:17;;;;;;;1.52;0.85;;;19.90;45.30;;;;;;5024232;28;44724;-64
2022/01/18 07:01:45;;;;;;;1.88;1.02;;;19.90;45.40;;;;;;5024250;28;43807;-65
2022/01/18 07:04:13;;;;;;;1.70;0.95;;;19.90;45.40;;;;;;5027234;28;43528;-63
2022/01/18 07:06:40;;;;;;;0.95;0.80;;;19.90;45.40;;;;;;5057715;28;43473;-63
2022/01/18 07:09:08;;;;;;;1.60;1.00;;;20.00;45.40;;;;;;5028036;28;43938;-64
2022/01/18 07:11:36;;;;;;;1.02;0.55;;;20.00;45.30;;;;;;5038933;28;43463;-65
2022/01/18 07:14:03;;;;;;;1.92;0.77;;;20.00;45.30;;;;;;5046101;28;43453;-63
2022/01/18 07:16:35;;;;;;;2.00;1.20;;;20.00;45.30;;;;;;5045758;28;43577;-64
2022/01/18 07:19:03;;;;;;;1.80;0.93;;;20.10;45.30;;;;;;5047787;28;43805;-63
2022/01/18 07:21:30;;;;;;;1.52;1.20;;;20.10;45.30;;;;;;5046411;28;43493;-63
2022/01/18 07:24:05;;;;;;;1.30;0.98;;;20.10;45.20;;;;;;5048038;28;43457;-64
2022/01/18 07:26:32;;;;;;;2.08;1.13;;;20.10;45.20;;;;;;5046290;28;43428;-64
2022/01/18 07:29:00;;;;;;;1.95;1.02;;;20.20;45.20;;;;;;5050323;28;43857;-64
2022/01/18 07:31:27;;;;;;;1.00;0.80;;;20.20;45.10;;;;;;5050854;28;43681;-63
2022/01/18 07:33:55;;;;;;;1.27;1.00;;;20.20;45.20;;;;;;5046906;28;43496;-64
2022/01/18 07:36:22;;;;;;;1.23;0.90;;;20.20;45.10;;;;;;5049234;28;43561;-64
2022/01/18 07:38:50;;;;;;;1.73;0.95;;;20.20;45.10;;;;;;5051018;28;44973;-63
2022/01/18 07:41:17;;;;;;;2.20;1.17;;;20.20;45.10;;;;;;5048136;28;43525;-64
2022/01/18 07:43:45;;;;;;;1.48;0.90;;;20.20;45.10;;;;;;5050493;28;43635;-64
2022/01/18 07:46:13;;;;;;;2.35;1.55;;;20.20;45.10;;;;;;5045537;28;43560;-62
2022/01/18 07:48:40;;;;;;;3.55;1.10;;;20.20;45.10;;;;;;5049041;28;43764;-64
2022/01/18 07:51:08;;;;;;;0.90;0.70;;;20.30;45.30;;;;;;5049544;28;43674;-62
2022/01/18 07:53:35;;;;;;;1.20;0.88;;;20.20;45.30;;;;;;5040379;28;43481;-63
2022/01/18 07:56:03;;;;;;;1.90;1.00;;;20.30;45.30;;;;;;5049461;28;43996;-63
2022/01/18 07:58:30;;;;;;;2.58;1.30;;;20.30;45.30;;;;;;5052179;28;44651;-63
2022/01/18 08:01:00;;;;;;;1.75;1.08;;;20.30;45.30;;;;;;5052970;28;43600;-63
2022/01/18 08:03:29;;;;;;;2.72;0.95;;;20.30;45.30;;;;;;5054366;28;43976;-63
2022/01/18 08:05:57;;;;;;;2.38;0.98;;;20.30;45.30;;;;;;5050921;28;44000;-63
2022/01/18 08:08:26;;;;;;;3.72;1.10;;;20.30;45.30;;;;;;5051945;28;43799;-63
2022/01/18 08:10:54;;;;;;;1.75;1.10;;;20.30;45.30;;;;;;5052232;28;43509;-63
2022/01/18 08:13:29;;;;;;;1.85;1.13;;;20.40;45.30;;;;;;5051021;28;43413;-64
2022/01/18 08:16:09;;;;;;;1.52;0.90;;;20.40;45.30;;;;;;5046629;28;43499;-63
2022/01/18 08:18:37;;;;;;;2.77;1.17;;;20.40;45.30;;;;;;5044866;28;45131;-63
2022/01/18 08:21:05;;;;;;;1.23;0.90;;;20.40;45.20;;;;;;5040980;28;43480;-63
2022/01/18 08:23:32;;;;;;;2.80;1.00;;;20.40;45.30;;;;;;5044813;28;43494;-63
2022/01/18 08:26:00;;;;;;;1.58;1.10;;;20.40;45.30;;;;;;5043958;28;43589;-63
2022/01/18 08:28:27;;;;;;;2.55;1.20;;;20.40;45.30;;;;;;5042231;28;43615;-62
2022/01/18 08:30:55;;;;;;;2.78;1.48;;;20.40;45.30;;;;;;5045449;28;44032;-64
2022/01/18 08:33:24;;;;;;;3.80;1.55;;;20.40;45.30;;;;;;5043099;28;43466;-62
2022/01/18 08:35:51;;;;;;;2.10;1.67;;;20.50;45.50;;;;;;5042609;28;43851;-63
2022/01/18 08:38:20;;;;;;;3.30;2.00;;;20.50;45.50;;;;;;5046117;28;44875;-63
2022/01/18 08:40:47;;;;;;;4.10;1.98;;;20.60;45.60;;;;;;5046480;28;43997;-64
2022/01/18 08:43:15;;;;;;;2.65;1.90;;;20.60;45.40;;;;;;5047694;28;43443;-64
2022/01/18 08:45:42;;;;;;;2.15;1.77;;;20.70;45.40;;;;;;5047737;28;43490;-64
2022/01/18 08:48:10;;;;;;;5.95;2.72;;;20.80;45.20;;;;;;5046699;28;43792;-64
2022/01/18 08:50:38;;;;;;;8.40;3.47;;;20.90;45.10;;;;;;5046360;28;43542;-63
2022/01/18 08:53:09;;;;;;;6.95;4.05;;;21.00;45.10;;;;;;5045654;28;44066;-64
2022/01/18 08:55:37;;;;;;;6.72;3.50;;;21.20;45.50;;;;;;5044630;28;43672;-64
2022/01/18 08:58:05;;;;;;;5.03;3.53;;;21.30;45.70;;;;;;5048868;28;44752;-63
2022/01/18 09:00:34;;;;;;;6.10;3.63;;;21.40;45.40;;;;;;5051379;28;43494;-63
2022/01/18 09:03:02;;;;;;;6.43;3.13;;;21.60;45.90;;;;;;5051269;28;43438;-64
2022/01/18 09:05:29;;;;;;;7.35;3.58;;;21.70;45.50;;;;;;5067782;28;43489;-64
2022/01/18 09:08:01;;;;;;;5.40;2.88;;;21.80;45.50;;;;;;5046537;28;43856;-64
2022/01/18 09:10:29;;;;;;;5.20;3.08;;;21.90;45.40;;;;;;5052005;28;43529;-64
2022/01/18 09:12:56;;;;;;;4.47;2.95;;;22.10;45.40;;;;;;5047925;28;43486;-62
2022/01/18 09:15:26;;;;;;;3.33;2.50;;;22.10;45.10;;;;;;5047272;28;43466;-64
2022/01/18 09:17:53;;;;;;;3.92;2.60;;;22.30;44.90;;;;;;5048840;28;43799;-62
2022/01/18 09:20:23;;;;;;;4.10;2.60;;;22.40;44.70;;;;;;5047164;28;43997;-63
2022/01/18 09:22:52;;;;;;;3.85;2.40;;;22.50;44.50;;;;;;5049494;28;43512;-64
2022/01/18 09:25:23;;;;;;;4.32;2.70;;;22.50;44.40;;;;;;5048208;28;43509;-63
2022/01/18 09:27:51;;;;;;;4.43;2.80;;;22.60;44.30;;;;;;5046046;28;43562;-63
2022/01/18 09:30:19;;;;;;;2.95;2.13;;;22.60;44.20;;;;;;5050627;28;43399;-64
2022/01/18 09:32:47;;;;;;;4.63;2.25;;;22.70;44.10;;;;;;5053847;28;43522;-62
2022/01/18 09:35:16;;;;;;;3.33;2.08;;;22.70;44.00;;;;;;5053918;28;43526;-62
2022/01/18 09:37:43;;;;;;;4.95;2.25;;;22.80;44.00;;;;;;5052019;28;43807;-63
2022/01/18 09:40:15;;;;;;;4.78;2.70;;;22.80;43.90;;;;;;5051771;28;43508;-64
2022/01/18 09:42:48;;;;;;;4.90;2.42;;;22.80;43.80;;;;;;5050997;28;43467;-63
2022/01/18 09:45:17;;;;;;;4.05;2.38;;;22.90;43.70;;;;;;5053543;28;43567;-63
2022/01/18 09:47:46;;;;;;;4.97;2.15;;;22.90;43.80;;;;;;5047105;28;44693;-65
2022/01/18 09:50:22;;;;;;;4.18;2.00;;;23.00;43.80;;;;;;5068225;28;43969;-63
2022/01/18 09:52:54;;;;;;;5.50;2.03;;;23.00;43.60;;;;;;5050736;28;43484;-63
2022/01/18 09:55:28;;;;;;;3.58;2.05;;;23.00;43.60;;;;;;5042946;28;43606;-62
2022/01/18 09:57:56;;;;;;;3.28;2.00;;;23.10;43.60;;;;;;5049487;28;44303;-62
2022/01/18 10:00:28;;;;;;;6.15;2.20;;;23.10;43.60;;;;;;5055228;28;43523;-64
2022/01/18 10:02:56;;;;;;;3.65;2.08;;;23.10;43.70;;;;;;5056109;28;43538;-64
2022/01/18 10:05:33;;;;;;;4.05;1.83;;;23.10;43.50;;;;;;5053772;28;43641;-64
2022/01/18 10:08:14;;;;;;;2.78;1.92;;;23.10;43.40;;;;;;5048646;28;43819;-64
2022/01/18 10:10:45;;;;;;;4.30;2.00;;;23.20;43.40;;;;;;5042346;28;43464;-64
2022/01/18 10:13:21;;;;;;;2.83;1.63;;;23.20;43.40;;;;;;5043370;28;43495;-65
2022/01/18 10:16:03;;;;;;;3.15;1.90;;;23.20;43.30;;;;;;5043179;28;43525;-65
2022/01/18 10:18:36;;;;;;;2.90;2.00;;;23.20;43.20;;;;;;5043317;28;44202;-64
2022/01/18 10:21:08;;;;;;;2.42;1.55;;;23.20;43.20;;;;;;5043229;28;43737;-64
2022/01/18 10:23:36;;;;;;;3.38;1.80;;;23.20;43.20;;;;;;5040032;28;43458;-64
2022/01/18 10:26:24;;;;;;;3.30;1.85;;;23.20;43.20;;;;;;5044133;28;43985;-64
2022/01/18 10:29:06;;;;;;;3.65;1.75;;;23.20;43.20;;;;;;5041430;28;43584;-65
2022/01/18 10:31:57;;;;;;;2.78;1.73;;;23.20;43.20;;;;;;5044086;28;43474;-64
2022/01/18 10:37:06;;;;;;;2.85;1.45;;;23.20;43.40;;;;;;5041954;28;43487;-65
2022/01/18 10:39:40;;;;;;;4.15;1.88;;;23.10;43.40;;;;;;5046323;28;44030;-65
2022/01/18 10:42:17;;;;;;;3.65;1.55;;;23.10;43.50;;;;;;5044250;28;43734;-65
2022/01/18 10:44:47;;;;;;;2.55;1.70;;;23.10;43.60;;;;;;5045075;28;43412;-65
2022/01/18 10:47:19;;;;;;;2.50;1.75;;;23.10;43.50;;;;;;5041961;28;43507;-65
2022/01/18 10:49:49;;;;;;;2.65;2.03;;;23.10;43.50;;;;;;5048175;28;44074;-64
2022/01/18 10:52:21;;;;;;;2.95;1.70;;;23.20;43.50;;;;;;5047932;28;43998;-65
2022/01/18 10:54:54;;;;;;;2.97;1.70;;;23.10;43.40;;;;;;5043003;28;43471;-65
2022/01/18 10:57:25;;;;;;;1.95;1.40;;;23.10;43.40;;;;;;5040903;28;43461;-65
2022/01/18 11:00:01;;;;;;;2.95;1.63;;;23.10;43.50;;;;;;5047311;28;44067;-65
2022/01/18 11:02:33;;;;;;;2.75;1.67;;;23.10;43.50;;;;;;5047403;28;44393;-65
2022/01/18 11:05:15;;;;;;;2.45;1.35;;;23.10;44.10;;;;;;5049643;28;43581;-65
2022/01/18 11:07:45;;;;;;;3.30;1.88;;;23.10;43.50;;;;;;5048408;28;43518;-65
2022/01/18 11:10:15;;;;;;;3.73;1.80;;;23.10;43.50;;;;;;5050378;28;45078;-65
2022/01/18 11:12:58;;;;;;;2.13;1.52;;;23.10;43.50;;;;;;5046228;28;43676;-65
2022/01/18 11:15:26;;;;;;;2.55;1.70;;;23.10;43.70;;;;;;5044671;28;43502;-64
2022/01/18 11:17:58;;;;;;;3.42;1.70;;;23.10;43.70;;;;;;5043090;28;43494;-64
2022/01/18 11:20:29;;;;;;;3.15;1.50;;;23.10;43.60;;;;;;5045199;28;44023;-65
2022/01/18 11:22:57;;;;;;;3.00;1.63;;;23.10;43.70;;;;;;5044067;28;44161;-64
2022/01/18 11:25:28;;;;;;;3.45;1.75;;;23.00;43.70;;;;;;5047603;28;43442;-64
2022/01/18 11:27:58;;;;;;;4.15;1.70;;;23.10;43.80;;;;;;5044386;28;43467;-64
2022/01/18 11:30:32;;;;;;;2.70;1.60;;;23.10;43.80;;;;;;5046494;28;44297;-64
2022/01/18 11:33:05;;;;;;;2.58;1.67;;;23.00;43.70;;;;;;5046716;28;43469;-63
2022/01/18 11:35:53;;;;;;;3.22;1.70;;;23.10;43.90;;;;;;5046319;28;43461;-64
2022/01/18 11:38:53;;;;;;;2.55;1.70;;;23.10;43.90;;;;;;5045203;28;43547;-63
2022/01/18 11:41:24;;;;;;;3.22;1.83;;;23.10;43.90;;;;;;5074939;27;44345;-63
2022/01/18 11:43:55;;;;;;;;;;;23.10;43.90;;;;;;5045536;28;43434;-64
2022/01/18 11:46:35;;;;;;;2.70;1.90;;;23.10;43.80;;;;;;5045756;28;43383;-64
2022/01/18 11:49:06;;;;;;;3.25;1.60;;;23.10;43.90;;;;;;5075210;27;43606;-63
2022/01/18 11:51:39;;;;;;;3.00;1.48;;;23.00;43.90;;;;;;5062651;28;44004;-65
2022/01/18 11:54:36;;;;;;;3.00;1.60;;;23.00;43.80;;;;;;5051053;28;43652;-66
2022/01/18 11:57:23;;;;;;;3.60;1.77;;;23.10;43.80;;;;;;5042213;28;43537;-65
2022/01/18 12:00:12;;;;;;;4.20;1.80;;;23.10;43.80;;;;;;5051509;28;43561;-65
2022/01/18 12:02:42;;;;;;;3.00;1.85;;;23.10;43.70;;;;;;5055870;28;44069;-65
2022/01/18 12:05:18;;;;;;;2.25;1.60;;;23.00;43.70;;;;;;5047808;28;43537;-65
2022/01/18 12:07:48;;;;;;;3.28;1.50;;;23.00;43.80;;;;;;5044718;28;43519;-66
2022/01/18 12:10:31;;;;;;;2.47;1.75;;;23.00;43.70;;;;;;5047952;28;43972;-65
2022/01/18 12:13:11;;;;;;;2.22;1.40;;;23.00;43.70;;;;;;5041331;28;43630;-65
2022/01/18 12:15:46;;;;;;;3.58;1.60;;;23.00;43.70;;;;;;5044676;28;44111;-65
2022/01/18 12:18:16;;;;;;;2.55;1.60;;;23.00;43.80;;;;;;5042309;28;43604;-64
2022/01/18 12:21:01;;;;;;;2.00;1.30;;;23.10;43.80;;;;;;5045337;28;43494;-65
2022/01/18 12:23:32;;;;;;;2.38;1.30;;;23.00;43.80;;;;;;5045584;28;43797;-64
2022/01/18 12:26:14;;;;;;;2.38;1.42;;;23.00;43.80;;;;;;5043527;28;43431;-64
2022/01/18 12:34:25;;;;;;;2.92;1.58;;;23.00;43.70;;;;;;5044127;28;43630;-65
2022/01/18 12:36:57;;;;;;;3.67;1.85;;;23.10;43.70;;;;;;5047445;28;43909;-65
2022/01/18 12:39:26;;;;;;;2.35;1.45;;;23.10;43.70;;;;;;5043683;28;43477;-64
2022/01/18 12:41:58;;;;;;;2.60;1.60;;;23.00;43.70;;;;;;5042245;28;43657;-64
2022/01/18 12:44:25;;;;;;;3.55;1.75;;;23.00;43.60;;;;;;5077697;27;44672;-65
2022/01/18 12:46:58;;;;;;;2.50;1.40;;;23.00;43.60;;;;;;5046871;28;43704;-64
2022/01/18 12:49:27;;;;;;;2.70;1.42;;;23.00;43.60;;;;;;5048868;28;43475;-65
2022/01/18 12:52:11;;;;;;;2.85;1.50;;;23.00;43.60;;;;;;5047777;28;43455;-65
2022/01/18 12:54:42;;;;;;;2.83;1.50;;;23.00;43.60;;;;;;5048383;28;44691;-65
2022/01/18 12:57:18;;;;;;;2.38;1.77;;;23.00;43.70;;;;;;5045727;28;43507;-65
2022/01/18 13:00:08;;;;;;;2.42;1.60;;;23.00;43.50;;;;;;5041670;28;43639;-65
2022/01/18 13:02:36;;;;;;;3.47;1.73;;;23.00;43.50;;;;;;5049680;28;43595;-65
2022/01/18 13:05:06;;;;;;;3.38;1.70;;;23.00;43.60;;;;;;5049786;28;44103;-65
2022/01/18 13:07:49;;;;;;;3.55;1.70;;;23.00;43.50;;;;;;5046796;28;43438;-65
2022/01/18 13:10:16;;;;;;;3.03;1.83;;;23.00;43.50;;;;;;5047609;28;44125;-65
2022/01/18 13:12:46;;;;;;;2.65;1.70;;;23.00;43.40;;;;;;5047178;28;43547;-65
2022/01/18 13:15:23;;;;;;;2.45;1.40;;;23.00;43.50;;;;;;5050034;28;43834;-64
2022/01/18 13:26:32;;;;;;;3.17;1.52;;;22.90;43.30;;;;;;4996467;28;45297;-65
2022/01/18 13:29:30;;;;;;;2.88;1.55;;;22.90;43.30;;;;;;5048667;28;43427;-66
2022/01/18 13:32:02;;;;;;;2.83;1.73;;;22.90;43.40;;;;;;5042870;28;43516;-65
2022/01/18 13:34:35;;;;;;;2.15;1.40;;;22.90;43.30;;;;;;5045280;28;43388;-65
2022/01/18 13:37:15;;;;;;;2.95;1.65;;;22.90;43.50;;;;;;5050978;28;43944;-65
2022/01/18 13:39:48;;;;;;;4.47;2.03;;;22.90;43.30;;;;;;5047701;28;43537;-65
2022/01/18 13:42:18;;;;;;;2.95;1.73;;;22.90;43.30;;;;;;5047774;28;43511;-65
2022/01/18 13:45:05;;;;;;;2.37;1.57;;;22.90;43.30;;;;;;5086597;27;43696;-65
2022/01/18 13:48:00;;;;;;;3.47;1.70;;;22.90;43.30;;;;;;5047022;28;43905;-64
2022/01/18 13:50:44;;;;;;;2.17;1.55;;;22.90;43.30;;;;;;5050543;28;43667;-65
2022/01/18 13:53:22;;;;;;;1.60;1.50;;;22.90;43.40;;;;;;5050000;28;43483;-65
2022/01/18 13:55:53;;;;;;;2.72;1.95;;;22.90;43.30;;;;;;5052731;28;43569;-65
2022/01/18 13:58:29;;;;;;;2.42;1.85;;;22.90;43.40;;;;;;5067601;28;44027;-65
2022/01/18 14:01:14;;;;;;;3.17;1.90;;;22.90;43.40;;;;;;5072200;27;43451;-65
2022/01/18 14:03:44;;;;;;;3.22;1.80;;;22.90;43.30;;;;;;5041780;28;43414;-65
2022/01/18 14:06:14;;;;;;;3.22;1.75;;;22.90;43.30;;;;;;5050181;28;43505;-65
2022/01/18 14:08:50;;;;;;;3.15;1.67;;;22.90;43.40;;;;;;5042817;28;44908;-65
2022/01/18 14:11:24;;;;;;;2.45;1.63;;;22.90;43.40;;;;;;5025786;28;43468;-64
2022/01/18 14:13:53;;;;;;;3.75;1.55;;;22.90;43.40;;;;;;5044319;28;43382;-64
2022/01/18 14:16:29;;;;;;;3.58;2.00;;;22.90;43.30;;;;;;5043720;28;43546;-65
2022/01/18 14:19:04;;;;;;;2.58;1.90;;;22.90;43.30;;;;;;5039948;28;44681;-64
2022/01/18 14:21:38;;;;;;;2.63;1.85;;;22.90;43.30;;;;;;5043478;28;43519;-65
2022/01/18 14:24:16;;;;;;;2.60;1.55;;;22.90;43.40;;;;;;5042565;28;43482;-65
2022/01/18 14:26:53;;;;;;;3.00;1.85;;;22.90;43.30;;;;;;5044310;28;43521;-65
2022/01/18 14:29:21;;;;;;;3.20;1.80;;;22.90;43.40;;;;;;5042034;28;43564;-65
2022/01/18 14:32:07;;;;;;;3.05;1.60;;;22.90;43.30;;;;;;5044956;28;43936;-65
2022/01/18 14:34:44;;;;;;;2.88;1.80;;;22.90;43.20;;;;;;5043146;28;43606;-64